createdAt,value
2018-05-10T00:02:21.812Z,70.02
2018-05-10T00:04:51.350Z,70.43
2018-05-10T00:07:20.535Z,70.19
2018-05-10T00:16:36.718Z,71.02
2018-05-10T00:19:05.903Z,70.41
2018-05-10T00:21:34.367Z,70.28
2018-05-10T00:24:02.862Z,70.59
2018-05-10T00:26:31.382Z,70.39
2018-05-10T00:28:59.798Z,70.33
2018-05-10T00:31:28.327Z,70.95
2018-05-10T00:33:56.896Z,70.67
2018-05-10T00:36:25.683Z,71.20
2018-05-10T00:38:54.374Z,71.64
2018-05-10T00:41:22.819Z,71.89
2018-05-10T00:43:51.224Z,72.17
2018-05-10T00:46:20.161Z,72.04
2018-05-10T00:48:48.708Z,72.32
2018-05-10T00:51:17.514Z,72.57
2018-05-10T00:53:46.079Z,72.76
2018-05-10T00:56:14.524Z,72.51
2018-05-10T00:58:43.083Z,73.34
2018-05-10T01:01:11.566Z,73.87
2018-05-10T01:03:40.245Z,73.34
2018-05-10T01:06:09.136Z,73.50
2018-05-10T01:08:38.099Z,72.96
2018-05-10T01:11:06.796Z,74.13
2018-05-10T01:13:35.377Z,74.28
2018-05-10T01:16:03.883Z,74.08
2018-05-10T01:18:32.319Z,73.62
2018-05-10T01:21:01.063Z,73.70
2018-05-10T01:23:29.506Z,73.97
2018-05-10T01:25:58.428Z,73.94
2018-05-10T01:28:27.093Z,74.18
2018-05-10T01:30:55.778Z,73.26
2018-05-10T01:33:24.215Z,73.32
2018-05-10T01:36:14.753Z,72.87
2018-05-10T01:38:43.469Z,72.73
2018-05-10T01:41:12.023Z,72.71
2018-05-10T01:43:40.487Z,72.58
2018-05-10T01:46:09.108Z,72.98
2018-05-10T01:48:37.527Z,72.36
2018-05-10T01:51:06.398Z,72.22
2018-05-10T01:53:35.031Z,72.37
2018-05-10T01:56:03.628Z,72.44
2018-05-10T01:58:32.415Z,72.40
2018-05-10T02:01:00.907Z,72.33
2018-05-10T02:03:29.472Z,71.82
2018-05-10T02:05:58.069Z,72.00
2018-05-10T02:11:04.179Z,72.51
2018-05-10T02:13:32.679Z,72.24
2018-05-10T02:16:01.214Z,72.45
2018-05-10T02:18:29.867Z,72.55
2018-05-10T02:20:59.046Z,72.53
2018-05-10T02:23:27.648Z,72.88
2018-05-10T02:26:59.533Z,72.64
2018-05-10T02:29:27.937Z,73.27
2018-05-10T02:31:56.373Z,73.41
2018-05-10T02:34:25.087Z,74.00
2018-05-10T02:36:53.640Z,73.87
2018-05-10T02:39:22.344Z,73.92
2018-05-10T02:41:50.999Z,73.72
2018-05-10T02:44:19.922Z,73.55
2018-05-10T02:46:48.521Z,73.97
2018-05-10T02:49:17.380Z,73.97
2018-05-10T02:51:45.859Z,74.09
2018-05-10T02:54:14.248Z,74.35
2018-05-10T02:56:42.899Z,74.50
2018-05-10T02:59:11.531Z,74.81
2018-05-10T03:01:40.263Z,75.03
2018-05-10T03:04:08.844Z,75.02
2018-05-10T03:06:37.281Z,74.89
2018-05-10T03:09:05.875Z,74.83
2018-05-10T03:11:34.348Z,75.01
2018-05-10T03:14:02.828Z,75.72
2018-05-10T03:16:31.270Z,75.76
2018-05-10T03:18:59.779Z,75.39
2018-05-10T03:21:28.278Z,75.37
2018-05-10T03:23:56.685Z,75.33
2018-05-10T03:26:25.283Z,75.33
2018-05-10T03:28:53.775Z,75.10
2018-05-10T03:31:22.215Z,76.03
2018-05-10T03:33:57.095Z,75.66
2018-05-10T03:36:25.680Z,75.78
2018-05-10T03:38:54.463Z,76.77
2018-05-10T03:41:23.021Z,76.03
2018-05-10T03:43:51.751Z,76.64
2018-05-10T03:46:20.390Z,76.44
2018-05-10T03:48:49.030Z,77.06
2018-05-10T03:51:17.495Z,77.14
2018-05-10T03:53:45.932Z,77.09
2018-05-10T03:56:14.657Z,77.43
2018-05-10T03:58:43.478Z,77.63
2018-05-10T04:04:16.503Z,79.98
2018-05-10T04:09:02.957Z,80.29
2018-05-10T04:11:31.383Z,80.70
2018-05-10T04:13:59.680Z,80.85
2018-05-10T04:16:27.994Z,80.59
2018-05-10T04:18:56.679Z,80.31
2018-05-10T04:21:25.147Z,81.26
2018-05-10T04:23:53.427Z,82.07
2018-05-10T04:26:21.747Z,81.59
2018-05-10T04:28:50.158Z,81.92
2018-05-10T04:31:18.490Z,81.07
2018-05-10T04:33:46.897Z,79.90
2018-05-10T04:36:15.211Z,80.46
2018-05-10T04:38:43.648Z,79.40
2018-05-10T04:41:11.963Z,78.88
2018-05-10T04:43:40.215Z,78.52
2018-05-10T04:46:08.511Z,79.07
2018-05-10T04:48:37.242Z,79.05
2018-05-10T04:51:05.550Z,78.83
2018-05-10T04:53:33.846Z,79.36
2018-05-10T04:56:02.144Z,79.12
2018-05-10T04:58:30.556Z,79.28
2018-05-10T05:00:58.999Z,78.51
2018-05-10T05:03:27.338Z,78.82
2018-05-10T05:05:55.697Z,79.22
2018-05-10T05:08:23.982Z,79.48
2018-05-10T05:10:52.306Z,79.30
2018-05-10T05:13:20.544Z,79.54
2018-05-10T05:15:48.846Z,78.87
2018-05-10T05:18:17.591Z,78.83
2018-05-10T05:20:46.029Z,79.17
2018-05-10T05:23:14.370Z,78.58
2018-05-10T05:25:42.647Z,77.30
2018-05-10T05:28:10.922Z,76.80
2018-05-10T05:30:39.334Z,76.87
2018-05-10T05:33:07.686Z,76.85
2018-05-10T05:35:36.036Z,76.59
2018-05-10T05:38:04.276Z,77.19
2018-05-10T05:40:32.648Z,76.80
2018-05-10T05:43:00.916Z,76.45
2018-05-10T05:45:29.203Z,76.37
2018-05-10T05:47:57.471Z,75.85
2018-05-10T05:50:26.086Z,75.11
2018-05-10T05:52:54.555Z,74.65
2018-05-10T05:55:22.919Z,74.40
2018-05-10T05:57:51.340Z,73.83
2018-05-10T06:00:19.692Z,73.90
2018-05-10T06:02:47.971Z,74.30
2018-05-10T06:05:16.257Z,73.69
2018-05-10T06:07:44.536Z,73.63
2018-05-10T06:10:12.835Z,72.33
2018-05-10T06:12:41.144Z,71.12
2018-05-10T06:15:09.543Z,70.99
2018-05-10T06:17:37.987Z,71.81
2018-05-10T06:20:06.492Z,71.75
2018-05-10T06:22:34.801Z,71.53
2018-05-10T06:25:03.072Z,71.66
2018-05-10T06:27:31.374Z,71.65
2018-05-10T06:29:59.630Z,71.77
2018-05-10T06:32:27.948Z,71.31
2018-05-10T06:34:56.331Z,70.64
2018-05-10T06:37:24.937Z,71.32
2018-05-10T06:39:53.242Z,71.32
2018-05-10T06:42:21.641Z,71.20
2018-05-10T06:44:50.057Z,70.97
2018-05-10T06:47:18.381Z,70.12
2018-05-10T06:49:46.821Z,68.16
2018-05-10T06:52:15.356Z,69.01
2018-05-10T06:54:43.873Z,68.31
2018-05-10T06:57:12.130Z,68.26
2018-05-10T06:59:40.451Z,67.57
2018-05-10T07:02:08.864Z,67.16
2018-05-10T07:04:37.098Z,68.34
2018-05-10T07:07:05.609Z,68.38
2018-05-10T07:09:34.397Z,67.46
2018-05-10T07:12:02.693Z,68.94
2018-05-10T07:14:32.990Z,68.76
2018-05-10T07:17:03.720Z,69.17
2018-05-10T07:19:34.083Z,69.57
2018-05-10T07:22:03.112Z,69.89
2018-05-10T07:24:32.536Z,70.73
2018-05-10T07:27:01.219Z,69.86
2018-05-10T07:29:29.661Z,69.06
2018-05-10T07:31:58.946Z,68.06
2018-05-10T07:34:27.242Z,69.17
2018-05-10T07:36:56.466Z,67.55
2018-05-10T07:39:26.057Z,67.09
2018-05-10T07:41:56.785Z,66.17
2018-05-10T07:44:25.502Z,66.26
2018-05-10T07:46:55.406Z,67.70
2018-05-10T07:49:24.102Z,66.92
2018-05-10T07:51:52.406Z,66.01
2018-05-10T07:54:20.680Z,64.54
2018-05-10T07:56:48.958Z,63.75
2018-05-10T07:59:17.398Z,63.26
2018-05-10T08:01:45.811Z,63.31
2018-05-10T08:04:14.172Z,62.08
2018-05-10T08:06:43.004Z,61.23
2018-05-10T08:09:11.752Z,61.01
2018-05-10T08:11:40.095Z,61.06
2018-05-10T08:14:08.381Z,59.53
2018-05-10T08:16:42.301Z,58.61
2018-05-10T08:19:18.578Z,59.03
2018-05-10T08:21:47.014Z,58.61
2018-05-10T08:24:16.096Z,58.18
2018-05-10T08:26:44.851Z,58.17
2018-05-10T08:29:13.158Z,57.70
2018-05-10T08:31:42.867Z,57.63
2018-05-10T08:34:12.862Z,57.88
2018-05-10T08:36:41.647Z,56.40
2018-05-10T08:39:09.908Z,56.13
2018-05-10T08:41:38.378Z,55.55
2018-05-10T08:44:06.934Z,54.55
2018-05-10T08:46:35.288Z,54.66
2018-05-10T08:49:03.551Z,54.25
2018-05-10T08:51:34.194Z,54.06
2018-05-10T08:54:04.565Z,53.32
2018-05-10T08:56:33.289Z,54.26
2018-05-10T08:59:01.777Z,52.81
2018-05-10T09:01:30.077Z,51.19
2018-05-10T09:03:58.340Z,50.29
2018-05-10T09:06:26.731Z,50.34
2018-05-10T09:08:55.305Z,50.54
2018-05-10T09:11:23.625Z,50.64
2018-05-10T09:13:51.940Z,50.38
2018-05-10T09:16:20.260Z,50.04
2018-05-10T09:18:48.534Z,49.73
2018-05-10T09:21:16.813Z,49.78
2018-05-10T09:23:45.068Z,49.82
2018-05-10T09:26:13.369Z,48.26
2018-05-10T09:28:41.648Z,48.45
2018-05-10T09:31:09.942Z,48.83
2018-05-10T09:33:38.194Z,48.49
2018-05-10T09:36:06.518Z,48.09
2018-05-10T09:38:34.972Z,47.40
2018-05-10T09:41:03.258Z,47.80
2018-05-10T09:43:31.731Z,47.09
2018-05-10T09:46:00.047Z,47.50
2018-05-10T09:48:28.382Z,47.19
2018-05-10T09:50:56.663Z,46.63
2018-05-10T09:53:24.957Z,46.74
2018-05-10T09:55:53.336Z,45.72
2018-05-10T09:58:21.658Z,45.73
2018-05-10T10:00:50.075Z,45.62
2018-05-10T10:03:18.456Z,45.26
2018-05-10T10:05:46.770Z,45.33
2018-05-10T10:08:15.306Z,44.57
2018-05-10T10:10:43.776Z,44.80
2018-05-10T10:13:12.430Z,43.67
2018-05-10T10:15:40.773Z,44.15
2018-05-10T10:18:09.056Z,44.93
2018-05-10T10:20:37.348Z,44.03
2018-05-10T10:23:05.617Z,43.87
2018-05-10T10:25:33.893Z,43.60
2018-05-10T10:28:03.000Z,42.87
2018-05-10T10:30:31.429Z,43.98
2018-05-10T10:32:59.928Z,43.35
2018-05-10T10:35:28.556Z,41.34
2018-05-10T10:37:56.844Z,40.09
2018-05-10T10:40:25.166Z,40.75
2018-05-10T10:42:53.422Z,40.63
2018-05-10T10:45:21.775Z,39.63
2018-05-10T10:47:50.094Z,39.84
2018-05-10T10:50:18.444Z,40.21
2018-05-10T10:52:46.719Z,39.25
2018-05-10T10:55:16.939Z,38.67
2018-05-10T10:57:46.138Z,37.67
2018-05-10T11:00:14.495Z,37.85
2018-05-10T11:02:42.928Z,38.18
2018-05-10T11:05:11.430Z,38.18
2018-05-10T11:07:39.699Z,37.13
2018-05-10T11:10:07.997Z,37.46
2018-05-10T11:12:36.286Z,36.03
2018-05-10T11:15:04.775Z,35.15
2018-05-10T11:17:33.053Z,35.07
2018-05-10T11:20:01.294Z,36.16
2018-05-10T11:22:29.668Z,35.89
2018-05-10T11:24:57.864Z,35.67
2018-05-10T11:27:26.199Z,36.05
2018-05-10T11:29:54.443Z,36.36
2018-05-10T11:32:22.761Z,36.35
2018-05-10T11:34:51.043Z,34.91
2018-05-10T11:37:19.367Z,34.99
2018-05-10T11:39:47.867Z,35.08
2018-05-10T11:42:16.303Z,34.21
2018-05-10T11:44:44.557Z,35.79
2018-05-10T11:47:12.871Z,33.23
2018-05-10T11:49:41.123Z,31.66
2018-05-10T11:52:09.446Z,30.92
2018-05-10T11:54:37.715Z,32.77
2018-05-10T11:57:06.150Z,32.60
2018-05-10T11:59:34.482Z,31.18
2018-05-10T12:02:03.039Z,33.81
2018-05-10T12:04:34.829Z,32.23
2018-05-10T12:07:03.607Z,34.07
2018-05-10T12:09:31.958Z,35.39
2018-05-10T12:12:01.135Z,34.13
2018-05-10T12:14:29.423Z,34.89
2018-05-10T12:16:59.230Z,32.81
2018-05-10T12:19:27.684Z,32.54
2018-05-10T12:21:56.002Z,32.73
2018-05-10T12:24:24.368Z,31.08
2018-05-10T12:26:52.673Z,34.32
2018-05-10T12:29:21.281Z,36.30
2018-05-10T12:31:49.558Z,36.15
2018-05-10T12:34:17.922Z,33.48
2018-05-10T12:36:46.222Z,32.32
2018-05-10T12:39:14.590Z,30.94
2018-05-10T12:41:43.092Z,33.92
2018-05-10T12:44:11.429Z,37.39
2018-05-10T12:46:39.710Z,31.52
2018-05-10T12:49:07.983Z,28.82
2018-05-10T12:51:36.263Z,29.08
2018-05-10T12:54:04.548Z,29.00
2018-05-10T12:56:32.906Z,28.51
2018-05-10T12:59:01.334Z,27.67
2018-05-10T13:01:29.639Z,30.13
2018-05-10T13:03:57.927Z,31.42
2018-05-10T13:06:26.223Z,32.84
2018-05-10T13:08:54.514Z,33.25
2018-05-10T13:11:22.796Z,33.84
2018-05-10T13:13:51.097Z,33.92
2018-05-10T13:16:19.389Z,31.07
2018-05-10T13:18:47.686Z,30.65
2018-05-10T13:21:15.999Z,28.14
2018-05-10T13:23:44.285Z,25.85
2018-05-10T13:26:12.559Z,24.84
2018-05-10T13:28:40.841Z,25.71
2018-05-10T13:31:09.171Z,24.14
2018-05-10T13:33:38.012Z,24.10
2018-05-10T13:36:06.311Z,24.03
2018-05-10T13:38:35.158Z,23.43
2018-05-10T13:41:03.476Z,23.40
2018-05-10T13:43:32.077Z,23.91
2018-05-10T13:46:00.550Z,22.76
2018-05-10T13:48:28.806Z,25.00
2018-05-10T13:50:57.102Z,27.31
2018-05-10T13:53:25.363Z,27.09
2018-05-10T13:55:53.652Z,27.80
2018-05-10T13:58:21.933Z,30.10
2018-05-10T14:00:50.343Z,29.86
2018-05-10T14:03:18.593Z,32.60
2018-05-10T14:05:46.873Z,32.58
2018-05-10T14:08:15.246Z,33.06
2018-05-10T14:10:43.524Z,33.44
2018-05-10T14:13:12.179Z,32.86
2018-05-10T14:15:40.501Z,30.99
2018-05-10T14:18:08.775Z,30.97
2018-05-10T14:20:37.126Z,30.69
2018-05-10T14:23:05.405Z,29.19
2018-05-10T14:25:33.691Z,29.38
2018-05-10T14:28:02.331Z,29.46
2018-05-10T14:30:30.632Z,29.91
2018-05-10T14:32:59.071Z,33.44
2018-05-10T14:35:34.131Z,34.65
2018-05-10T14:38:02.599Z,35.68
2018-05-10T14:40:30.928Z,36.87
2018-05-10T14:42:59.207Z,37.84
2018-05-10T14:45:27.488Z,38.39
2018-05-10T14:47:55.797Z,34.84
2018-05-10T14:50:24.085Z,33.77
2018-05-10T14:52:52.402Z,36.07
2018-05-10T14:55:20.713Z,36.98
2018-05-10T14:57:49.104Z,38.13
2018-05-10T15:00:17.420Z,39.11
2018-05-10T15:02:45.675Z,42.78
2018-05-10T15:05:14.186Z,44.70
2018-05-10T15:07:42.487Z,46.43
2018-05-10T15:10:10.819Z,35.56
2018-05-10T15:12:39.110Z,37.06
2018-05-10T15:15:07.686Z,40.75
2018-05-10T15:17:35.988Z,44.69
2018-05-10T15:20:04.556Z,42.89
2018-05-10T15:22:32.824Z,43.82
2018-05-10T15:25:01.484Z,46.61
2018-05-10T15:27:29.796Z,47.85
2018-05-10T15:29:58.093Z,48.83
2018-05-10T15:32:26.391Z,50.92
2018-05-10T15:34:54.686Z,48.11
2018-05-10T15:37:23.266Z,43.94
2018-05-10T15:39:51.769Z,43.29
2018-05-10T15:42:20.066Z,44.63
2018-05-10T15:44:48.330Z,44.38
2018-05-10T15:47:16.618Z,44.98
2018-05-10T15:49:44.927Z,44.91
2018-05-10T15:52:13.199Z,48.77
2018-05-10T15:54:42.867Z,67.27
2018-05-10T15:57:11.364Z,76.02
2018-05-10T15:59:39.639Z,76.95
2018-05-10T16:02:08.277Z,79.11
2018-05-10T16:04:36.757Z,72.71
2018-05-10T16:07:05.079Z,77.48
2018-05-10T16:09:36.334Z,72.20
2018-05-10T16:12:05.894Z,74.43
2018-05-10T16:14:35.014Z,76.53
2018-05-10T16:17:04.348Z,81.36
2018-05-10T16:19:35.834Z,78.42
2018-05-10T16:22:08.282Z,72.75
2018-05-10T16:24:38.052Z,73.43
2018-05-10T16:27:07.820Z,82.26
2018-05-10T16:29:38.446Z,85.48
2018-05-10T16:32:06.946Z,81.15
2018-05-10T16:34:35.374Z,84.31
2018-05-10T16:37:03.887Z,84.64
2018-05-10T16:39:32.339Z,85.43
2018-05-10T16:42:00.604Z,89.47
2018-05-10T16:44:28.917Z,91.21
2018-05-10T16:46:57.247Z,93.80
2018-05-10T16:49:25.614Z,93.57
2018-05-10T16:51:54.119Z,90.35
2018-05-10T16:54:22.496Z,89.95
2018-05-10T16:56:51.818Z,90.83
2018-05-10T16:59:20.994Z,92.54
2018-05-10T17:01:49.571Z,94.80
2018-05-10T17:04:17.867Z,94.17
2018-05-10T17:06:46.213Z,94.28
2018-05-10T17:09:14.514Z,95.95
2018-05-10T17:11:42.816Z,92.83
2018-05-10T17:14:11.135Z,91.19
2018-05-10T17:16:39.545Z,92.55
2018-05-10T17:19:07.825Z,92.42
2018-05-10T17:21:36.150Z,93.67
2018-05-10T17:24:04.469Z,94.20
2018-05-10T17:26:32.855Z,96.07
2018-05-10T17:29:01.196Z,97.77
2018-05-10T17:31:29.537Z,96.63
2018-05-10T17:33:59.230Z,94.12
2018-05-10T17:36:28.731Z,96.88
2018-05-10T17:38:57.770Z,97.68
2018-05-10T17:41:27.158Z,98.30
2018-05-10T17:43:56.807Z,100.00
2018-05-10T17:46:25.101Z,100.00
2018-05-10T17:48:53.353Z,98.71
2018-05-10T17:51:21.639Z,90.56
2018-05-10T17:53:49.886Z,95.22
2018-05-10T17:56:18.400Z,95.87
2018-05-10T17:58:46.696Z,95.88
2018-05-10T18:01:15.183Z,95.45
2018-05-10T18:03:43.517Z,88.14
2018-05-10T18:06:11.874Z,87.70
2018-05-10T18:08:40.354Z,89.23
2018-05-10T18:11:08.655Z,91.48
2018-05-10T18:13:37.005Z,95.39
2018-05-10T18:16:05.323Z,93.61
2018-05-10T18:18:33.583Z,91.79
2018-05-10T18:21:02.883Z,94.73
2018-05-10T18:23:31.567Z,92.71
2018-05-10T18:25:59.783Z,97.18
2018-05-10T18:28:28.243Z,95.50
2018-05-10T18:30:56.726Z,96.61
2018-05-10T18:33:25.491Z,98.03
2018-05-10T18:35:53.788Z,98.21
2018-05-10T18:38:22.066Z,99.88
2018-05-10T18:40:50.435Z,99.29
2018-05-10T18:43:18.875Z,99.18
2018-05-10T18:45:47.314Z,99.64
2018-05-10T18:48:15.714Z,99.23
2018-05-10T18:50:44.306Z,98.92
2018-05-10T18:53:12.664Z,100.00
2018-05-10T18:55:40.963Z,96.66
2018-05-10T18:58:09.381Z,97.06
2018-05-10T19:00:37.691Z,97.87
2018-05-10T19:03:05.947Z,100.00
2018-05-10T19:05:34.495Z,100.00
2018-05-10T19:08:02.878Z,100.00
2018-05-10T19:10:31.351Z,100.00
2018-05-10T19:12:59.655Z,100.00
2018-05-10T19:15:27.971Z,100.00
2018-05-10T19:17:56.263Z,100.00
2018-05-10T19:20:24.568Z,100.00
2018-05-10T19:22:52.959Z,100.00
2018-05-10T19:25:21.285Z,100.00
2018-05-10T19:27:50.314Z,100.00
2018-05-10T19:30:18.734Z,100.00
2018-05-10T19:32:47.086Z,100.00
2018-05-10T19:35:15.502Z,100.00
2018-05-10T19:37:43.802Z,100.00
2018-05-10T19:40:12.214Z,100.00
2018-05-10T19:42:40.550Z,100.00
2018-05-10T19:45:09.194Z,100.00
2018-05-10T19:47:37.886Z,100.00
2018-05-10T19:50:06.278Z,100.00
2018-05-10T19:52:34.746Z,100.00
2018-05-10T19:55:03.021Z,100.00
2018-05-10T19:57:31.518Z,100.00
2018-05-10T19:59:59.958Z,100.00
2018-05-10T20:02:28.270Z,100.00
2018-05-10T20:04:56.700Z,100.00
2018-05-10T20:07:25.030Z,100.00
2018-05-10T20:09:53.598Z,100.00
2018-05-10T20:12:22.007Z,100.00
2018-05-10T20:14:50.376Z,100.00
2018-05-10T20:17:18.796Z,100.00
2018-05-10T20:19:47.130Z,100.00
2018-05-10T20:22:15.426Z,100.00
2018-05-10T20:24:43.713Z,100.00
2018-05-10T20:27:12.186Z,100.00
2018-05-10T20:29:40.545Z,100.00
2018-05-10T20:32:09.106Z,100.00
2018-05-10T20:34:37.482Z,100.00
2018-05-10T20:37:05.782Z,100.00
2018-05-10T20:39:34.234Z,100.00
2018-05-10T20:42:02.558Z,100.00
2018-05-10T20:44:30.848Z,100.00
2018-05-10T20:46:59.301Z,100.00
2018-05-10T20:49:27.761Z,100.00
2018-05-10T20:51:56.256Z,100.00
2018-05-10T20:54:24.515Z,100.00
2018-05-10T20:56:52.888Z,100.00
2018-05-10T20:59:21.175Z,100.00
2018-05-10T21:01:49.501Z,100.00
2018-05-10T21:04:17.871Z,100.00
2018-05-10T21:06:46.203Z,100.00
2018-05-10T21:09:14.586Z,100.00
2018-05-10T21:11:43.082Z,100.00
2018-05-10T21:14:11.371Z,100.00
2018-05-10T21:16:39.832Z,100.00
2018-05-10T21:19:08.117Z,100.00
2018-05-10T21:21:36.410Z,100.00
2018-05-10T21:24:04.666Z,100.00
2018-05-10T21:26:33.152Z,100.00
2018-05-10T21:29:01.618Z,100.00
2018-05-10T21:31:29.901Z,100.00
2018-05-10T21:33:58.452Z,100.00
2018-05-10T21:36:26.674Z,100.00
2018-05-10T21:38:54.925Z,100.00
2018-05-10T21:41:23.219Z,100.00
2018-05-10T21:43:51.653Z,100.00
2018-05-10T21:46:20.110Z,100.00
2018-05-10T21:48:48.362Z,100.00
2018-05-10T21:51:16.654Z,100.00
2018-05-10T21:53:44.961Z,100.00
2018-05-10T21:56:13.263Z,100.00
2018-05-10T21:58:41.730Z,100.00
2018-05-10T22:01:12.269Z,100.00
2018-05-10T22:03:40.739Z,100.00
2018-05-10T22:06:09.079Z,100.00
2018-05-10T22:08:37.462Z,100.00
2018-05-10T22:11:05.942Z,100.00
2018-05-10T22:13:34.238Z,100.00
2018-05-10T22:16:02.710Z,100.00
2018-05-10T22:18:31.020Z,100.00
2018-05-10T22:20:59.313Z,100.00
2018-05-10T22:23:27.579Z,100.00
2018-05-10T22:25:55.854Z,100.00
2018-05-10T22:28:24.135Z,100.00
2018-05-10T22:30:52.455Z,100.00
2018-05-10T22:33:20.882Z,100.00
2018-05-10T22:35:49.189Z,100.00
2018-05-10T22:38:17.634Z,100.00
2018-05-10T22:40:45.939Z,100.00
2018-05-10T22:43:14.399Z,100.00
2018-05-10T22:45:42.699Z,100.00
2018-05-10T22:48:10.977Z,100.00
2018-05-10T22:50:39.575Z,100.00
2018-05-10T22:53:07.890Z,100.00
2018-05-10T22:55:36.206Z,100.00
2018-05-10T22:58:05.318Z,100.00
2018-05-10T23:00:33.790Z,100.00
2018-05-10T23:03:02.039Z,100.00
2018-05-10T23:05:32.427Z,100.00
2018-05-10T23:08:00.838Z,100.00
2018-05-10T23:10:29.939Z,100.00
2018-05-10T23:12:58.616Z,100.00
2018-05-10T23:15:26.886Z,100.00
2018-05-10T23:17:55.162Z,100.00
2018-05-10T23:20:23.442Z,100.00
2018-05-10T23:22:51.714Z,100.00
2018-05-10T23:25:20.042Z,100.00
2018-05-10T23:27:48.353Z,100.00
2018-05-10T23:30:16.650Z,100.00
2018-05-10T23:32:45.022Z,99.90
2018-05-10T23:35:13.343Z,100.00
2018-05-10T23:37:41.785Z,100.00
2018-05-10T23:40:10.103Z,100.00
2018-05-10T23:42:38.372Z,99.79
2018-05-10T23:45:06.821Z,100.00
2018-05-10T23:47:35.102Z,99.89
2018-05-10T23:50:03.375Z,99.98
2018-05-10T23:52:31.670Z,98.25
2018-05-10T23:54:59.991Z,98.61
2018-05-10T23:57:28.395Z,99.47
2018-05-10T23:59:56.756Z,98.94
